Terminal Aerodrome Forecast
Issued by NWS Twin Cities, MN

Home | Current Version | Previous Version | Graphics & Text | Print | Product List | Glossary On
Versions: 1 2 3 4 5 6 7 8 9 10 11 12 13 14 15 16 17 18 19 20 21 22 23 24 25
000
FTUS43 KMPX 172057 AAA
TAFMSP
TAF AMD
KMSP 172057Z 1721/1824 32004KT P6SM FEW250
     FM180900 03006KT P6SM SCT200
     FM181500 09011KT P6SM BKN200
     FM182000 10014G21KT P6SM FEW040 BKN100=

USA.gov is the U.S. government's official web portal to all federal, state and local government web resources and services.